Main page
METAR-TAF:

METAR-TAF

Airports :

San Sebastián Airport

San Sebastián, Spain

latitude: 43-21N, longitude: 001-48W, elevation: 5 m

Current weather observation

The report was made 25 minutes ago, at 14:30 UTC
Wind 6 kt from the West/Northwest, varying between West/Southwest and North/Northwest
Temperature 21°C
Humidity 78%
Pressure 1022 hPa
Visibility 10 km or more
Broken clouds at a height of 1500 ft

METAR: LESO 221430Z 30006KT 250V340 9999 BKN015 21/17 Q1022

Time: 16:55 (14:55 UTC)

Forecast

The report was made 3 hours and 55 minutes ago, at 11:00 UTC
Forecast valid from 22 at 12 UTC to 23 at 12 UTC
Wind 5 kt from the North
Visibility 10 km or more
Scattered clouds at a height of 1000 ft
Scattered clouds at a height of 2500 ft
Temporary
from 22 at 12 UTC to 22 at 14 UTC
Broken clouds at a height of 1000 ft

TAF: LESO 221100Z 2212/2312 01005KT 9999 SCT010 SCT025 TX23/2215Z TN17/2305Z TEMPO 2212/2214 BKN010

Weather observations and forecasts of more than 4000 airports (METAR and TAF reports).

The available stations are represented by yellow and red dots on the map.

Hover mouse over dot to see the name of the station.

Then click to see weather observations and forecasts.

To change the map : click on the green buttons with a black cross to zoom in, on the green button with a dash to zoom out, or on the green arrows for adjacent maps.


METAR-TAF: